createdAt,value
2017-10-19T00:00:22.984Z,9.37
2017-10-19T00:02:50.103Z,10.37
2017-10-19T00:05:16.952Z,8.30
2017-10-19T00:07:43.783Z,9.30
2017-10-19T00:10:10.595Z,9.50
2017-10-19T00:12:37.435Z,9.90
2017-10-19T00:15:04.270Z,9.80
2017-10-19T00:17:31.108Z,9.67
2017-10-19T00:19:57.943Z,8.67
2017-10-19T00:22:24.814Z,8.97
2017-10-19T00:24:51.894Z,9.67
2017-10-19T00:27:19.061Z,10.30
2017-10-19T00:29:45.939Z,9.00
2017-10-19T00:32:13.626Z,9.97
2017-10-19T00:34:40.488Z,8.60
2017-10-19T00:37:07.334Z,8.90
2017-10-19T00:39:34.159Z,9.80
2017-10-19T00:42:00.963Z,9.60
2017-10-19T00:44:27.811Z,9.87
2017-10-19T00:46:54.636Z,9.50
2017-10-19T00:49:21.460Z,9.20
2017-10-19T00:51:48.332Z,10.20
2017-10-19T00:54:15.452Z,9.83
2017-10-19T00:56:42.292Z,8.97
2017-10-19T00:59:09.168Z,9.33
2017-10-19T01:01:36.047Z,10.30
2017-10-19T01:04:02.937Z,11.10
2017-10-19T01:06:30.180Z,9.83
2017-10-19T01:08:57.004Z,7.73
2017-10-19T01:11:23.844Z,9.67
2017-10-19T01:13:51.020Z,10.50
2017-10-19T01:16:17.857Z,8.97
2017-10-19T01:18:44.679Z,11.40
2017-10-19T01:21:11.524Z,9.03
2017-10-19T01:23:38.600Z,10.00
2017-10-19T01:26:05.738Z,9.50
2017-10-19T01:28:32.887Z,9.87
2017-10-19T01:31:00.039Z,8.97
2017-10-19T01:33:26.925Z,9.63
2017-10-19T01:35:54.141Z,9.80
2017-10-19T01:38:21.007Z,8.77
2017-10-19T01:40:47.893Z,10.50
2017-10-19T01:43:14.793Z,8.70
2017-10-19T01:45:41.666Z,9.90
2017-10-19T01:48:08.768Z,9.90
2017-10-19T01:50:35.647Z,9.60
2017-10-19T01:53:02.754Z,9.30
2017-10-19T01:55:29.908Z,9.67
2017-10-19T01:57:57.060Z,9.40
2017-10-19T02:00:23.862Z,8.67
2017-10-19T02:02:51.052Z,10.53
2017-10-19T02:05:18.841Z,9.57
2017-10-19T02:07:45.674Z,10.23
2017-10-19T02:10:12.516Z,9.60
2017-10-19T02:12:39.653Z,10.57
2017-10-19T02:15:06.804Z,9.83
2017-10-19T02:17:33.952Z,10.63
2017-10-19T02:20:00.820Z,9.70
2017-10-19T02:22:27.646Z,10.03
2017-10-19T02:24:54.504Z,10.17
2017-10-19T02:27:21.369Z,10.67
2017-10-19T02:29:48.236Z,10.13
2017-10-19T02:32:15.100Z,11.10
2017-10-19T02:34:41.967Z,10.73
2017-10-19T02:37:08.822Z,10.80
2017-10-19T02:39:35.632Z,11.13
2017-10-19T02:42:02.691Z,10.60
2017-10-19T02:44:29.841Z,9.50
2017-10-19T02:46:56.997Z,11.53
2017-10-19T02:49:23.856Z,10.17
2017-10-19T02:51:50.695Z,9.80
2017-10-19T02:54:17.527Z,10.40
2017-10-19T02:56:44.382Z,10.13
2017-10-19T02:59:11.243Z,9.03
2017-10-19T03:01:38.464Z,10.50
2017-10-19T03:04:05.329Z,11.00
2017-10-19T03:06:32.177Z,10.80
2017-10-19T03:08:59.029Z,10.00
2017-10-19T03:11:25.899Z,10.20
2017-10-19T03:13:52.752Z,10.00
2017-10-19T03:16:19.563Z,11.73
2017-10-19T03:18:46.671Z,10.23
2017-10-19T03:21:13.528Z,11.37
2017-10-19T03:23:40.367Z,9.90
2017-10-19T03:26:07.200Z,11.70
2017-10-19T03:28:34.061Z,10.60
2017-10-19T03:31:01.192Z,12.40
2017-10-19T03:33:28.339Z,11.90
2017-10-19T03:35:55.178Z,11.50
2017-10-19T03:38:22.337Z,10.53
2017-10-19T03:40:49.485Z,13.43
2017-10-19T03:43:16.640Z,11.00
2017-10-19T03:45:43.490Z,12.30
2017-10-19T03:48:10.330Z,12.40
2017-10-19T03:50:37.172Z,10.70
2017-10-19T03:53:04.318Z,12.40
2017-10-19T03:55:31.151Z,11.23
2017-10-19T03:57:58.027Z,11.13
2017-10-19T04:00:24.892Z,11.37
2017-10-19T04:02:52.102Z,12.20
2017-10-19T04:05:18.951Z,11.77
2017-10-19T04:07:45.782Z,11.80
2017-10-19T04:10:12.941Z,11.07
2017-10-19T04:12:39.825Z,11.47
2017-10-19T04:15:06.632Z,13.50
2017-10-19T04:17:33.467Z,12.77
2017-10-19T04:20:00.303Z,12.00
2017-10-19T04:22:27.144Z,10.90
2017-10-19T04:24:54.311Z,11.23
2017-10-19T04:27:21.155Z,11.10
2017-10-19T04:29:48.005Z,13.37
2017-10-19T04:32:14.864Z,13.73
2017-10-19T04:34:41.983Z,14.10
2017-10-19T04:37:08.790Z,13.57
2017-10-19T04:39:35.751Z,12.70
2017-10-19T04:42:02.605Z,13.10
2017-10-19T04:44:29.659Z,14.67
2017-10-19T04:46:56.528Z,14.90
2017-10-19T04:49:23.661Z,13.47
2017-10-19T04:51:50.508Z,16.37
2017-10-19T04:54:17.351Z,13.90
2017-10-19T04:56:44.192Z,16.90
2017-10-19T04:59:11.336Z,14.37
2017-10-19T05:01:38.483Z,15.50
2017-10-19T05:04:05.304Z,15.83
2017-10-19T05:06:32.481Z,15.73
2017-10-19T05:08:59.627Z,15.77
2017-10-19T05:11:26.509Z,14.13
2017-10-19T05:13:53.380Z,14.13
2017-10-19T05:16:20.265Z,15.77
2017-10-19T05:18:47.412Z,16.80
2017-10-19T05:21:14.263Z,16.07
2017-10-19T05:23:41.156Z,19.13
2017-10-19T05:26:08.016Z,18.30
2017-10-19T05:28:35.278Z,18.30
2017-10-19T05:31:02.580Z,17.90
2017-10-19T05:33:29.695Z,18.53
2017-10-19T05:35:56.847Z,17.70
2017-10-19T05:38:23.996Z,19.20
2017-10-19T05:40:50.815Z,18.43
2017-10-19T05:43:18.001Z,17.90
2017-10-19T05:45:45.139Z,18.10
2017-10-19T05:48:12.296Z,19.80
2017-10-19T05:50:39.140Z,17.77
2017-10-19T05:53:06.287Z,18.90
2017-10-19T05:55:33.141Z,19.77
2017-10-19T05:58:00.995Z,18.37
2017-10-19T06:00:28.153Z,19.80
2017-10-19T06:02:55.299Z,19.47
2017-10-19T06:05:22.454Z,18.70
2017-10-19T06:07:49.604Z,20.07
2017-10-19T06:10:16.478Z,20.60
2017-10-19T06:12:43.982Z,20.37
2017-10-19T06:15:11.467Z,20.10
2017-10-19T06:17:39.294Z,21.17
2017-10-19T06:20:06.908Z,22.57
2017-10-19T06:22:34.564Z,20.17
2017-10-19T06:25:02.125Z,19.30
2017-10-19T06:27:29.656Z,19.53
2017-10-19T06:29:57.421Z,23.67
2017-10-19T06:32:25.022Z,23.57
2017-10-19T06:34:52.697Z,21.00
2017-10-19T06:37:20.478Z,20.77
2017-10-19T06:39:47.774Z,20.80
2017-10-19T06:42:15.229Z,23.40
2017-10-19T06:44:42.395Z,21.10
2017-10-19T06:47:09.536Z,20.80
2017-10-19T06:49:36.688Z,20.80
2017-10-19T06:52:03.797Z,23.23
2017-10-19T06:54:30.640Z,19.93
2017-10-19T06:56:57.484Z,20.33
2017-10-19T06:59:24.471Z,22.33
2017-10-19T07:01:52.617Z,21.50
2017-10-19T07:04:19.455Z,21.47
2017-10-19T07:06:46.292Z,20.07
2017-10-19T07:09:13.371Z,22.50
2017-10-19T07:11:40.523Z,22.40
2017-10-19T07:14:07.424Z,22.50
2017-10-19T07:16:34.272Z,20.77
2017-10-19T07:19:01.091Z,21.43
2017-10-19T07:21:27.954Z,22.67
2017-10-19T07:23:54.814Z,21.00
2017-10-19T07:26:21.688Z,19.30
2017-10-19T07:28:48.835Z,20.77
2017-10-19T07:31:15.664Z,21.20
2017-10-19T07:33:42.727Z,20.80
2017-10-19T07:36:09.587Z,21.40
2017-10-19T07:38:36.720Z,21.53
2017-10-19T07:41:03.564Z,21.70
2017-10-19T07:43:30.398Z,21.37
2017-10-19T07:45:57.233Z,19.20
2017-10-19T07:48:24.405Z,18.27
2017-10-19T07:50:51.272Z,18.37
2017-10-19T07:53:18.095Z,19.97
2017-10-19T07:55:44.919Z,19.80
2017-10-19T07:58:11.812Z,19.20
2017-10-19T08:00:38.924Z,18.80
2017-10-19T08:03:05.805Z,18.10
2017-10-19T08:05:33.148Z,19.90
2017-10-19T08:07:59.963Z,18.63
2017-10-19T08:10:26.800Z,19.87
2017-10-19T08:12:53.661Z,19.43
2017-10-19T08:15:20.808Z,18.83
2017-10-19T08:17:47.650Z,19.83
2017-10-19T08:20:14.799Z,20.53
2017-10-19T08:22:41.948Z,21.03
2017-10-19T08:25:08.796Z,19.63
2017-10-19T08:27:35.642Z,23.57
2017-10-19T08:30:02.455Z,21.90
2017-10-19T08:32:29.280Z,24.07
2017-10-19T08:34:56.473Z,23.67
2017-10-19T08:37:23.621Z,21.77
2017-10-19T08:39:50.473Z,21.80
2017-10-19T08:42:17.558Z,21.03
2017-10-19T08:44:44.668Z,22.30
2017-10-19T08:47:11.508Z,22.07
2017-10-19T08:49:38.359Z,21.70
2017-10-19T08:52:05.183Z,22.77
2017-10-19T08:54:32.048Z,20.53
2017-10-19T08:56:59.188Z,21.97
2017-10-19T08:59:26.044Z,23.37
2017-10-19T09:01:52.855Z,20.57
2017-10-19T09:04:20.019Z,23.30
2017-10-19T09:06:46.827Z,21.20
2017-10-19T09:09:13.910Z,21.77
2017-10-19T09:11:40.776Z,21.83
2017-10-19T09:14:07.632Z,20.60
2017-10-19T09:16:34.748Z,20.90
2017-10-19T09:19:01.910Z,20.80
2017-10-19T09:21:29.052Z,21.50
2017-10-19T09:23:56.210Z,20.27
2017-10-19T09:26:23.077Z,20.10
2017-10-19T09:28:50.143Z,21.10
2017-10-19T09:31:17.037Z,19.00
2017-10-19T09:33:43.912Z,22.40
2017-10-19T09:36:10.763Z,20.57
2017-10-19T09:38:37.616Z,20.60
2017-10-19T09:41:04.512Z,21.10
2017-10-19T09:43:31.384Z,20.40
2017-10-19T09:45:58.232Z,21.80
2017-10-19T09:48:25.071Z,21.77
2017-10-19T09:50:51.929Z,22.47
2017-10-19T09:53:18.752Z,22.43
2017-10-19T09:55:45.624Z,22.20
2017-10-19T09:58:12.729Z,22.07
2017-10-19T10:00:39.580Z,33.77
2017-10-19T10:03:06.711Z,21.87
2017-10-19T10:05:33.859Z,22.40
2017-10-19T10:08:01.017Z,21.03
2017-10-19T10:10:27.853Z,20.10
2017-10-19T10:12:54.906Z,21.20
2017-10-19T10:15:21.753Z,19.53
2017-10-19T10:17:48.623Z,20.90
2017-10-19T10:20:15.477Z,20.17
2017-10-19T10:22:42.591Z,19.50
2017-10-19T10:25:09.739Z,21.40
2017-10-19T10:27:36.883Z,23.20
2017-10-19T10:30:03.736Z,23.17
2017-10-19T10:32:30.608Z,23.20
2017-10-19T10:34:57.721Z,24.93
2017-10-19T10:37:24.883Z,21.10
2017-10-19T10:39:52.027Z,25.53
2017-10-19T10:42:19.067Z,23.67
2017-10-19T10:44:45.901Z,24.30
2017-10-19T10:47:12.739Z,26.07
2017-10-19T10:49:39.586Z,24.10
2017-10-19T10:52:06.643Z,23.33
2017-10-19T10:54:33.561Z,21.93
2017-10-19T10:57:00.645Z,23.07
2017-10-19T10:59:27.704Z,24.10
2017-10-19T11:01:54.545Z,25.43
2017-10-19T11:04:21.405Z,27.10
2017-10-19T11:06:48.247Z,26.83
2017-10-19T11:09:15.372Z,26.37
2017-10-19T11:11:42.521Z,27.23
2017-10-19T11:14:09.675Z,27.53
2017-10-19T11:16:36.545Z,26.73
2017-10-19T11:19:03.359Z,25.97
2017-10-19T11:21:30.222Z,26.07
2017-10-19T11:23:57.128Z,26.67
2017-10-19T11:26:23.940Z,26.87
2017-10-19T11:28:51.140Z,26.73
2017-10-19T11:31:18.292Z,26.50
2017-10-19T11:33:45.448Z,27.63
2017-10-19T11:36:12.253Z,26.67
2017-10-19T11:38:39.531Z,28.83
2017-10-19T11:41:06.359Z,27.80
2017-10-19T11:43:33.201Z,29.20
2017-10-19T11:46:00.373Z,30.30
2017-10-19T11:48:27.519Z,29.60
2017-10-19T11:50:54.373Z,29.70
2017-10-19T11:53:21.284Z,28.27
2017-10-19T11:55:48.099Z,29.00
2017-10-19T11:58:14.944Z,29.47
2017-10-19T12:00:41.783Z,29.30
2017-10-19T12:03:08.890Z,29.57
2017-10-19T12:05:35.744Z,29.43
2017-10-19T12:08:02.885Z,28.93
2017-10-19T12:10:29.767Z,28.30
2017-10-19T12:12:56.625Z,27.93
2017-10-19T12:15:23.492Z,27.20
2017-10-19T12:17:50.336Z,29.90
2017-10-19T12:20:17.152Z,27.13
2017-10-19T12:22:43.986Z,31.30
2017-10-19T12:25:10.850Z,27.63
2017-10-19T12:27:37.704Z,28.27
2017-10-19T12:30:04.545Z,31.37
2017-10-19T12:32:31.379Z,29.90
2017-10-19T12:34:58.261Z,28.13
2017-10-19T12:37:25.104Z,29.47
2017-10-19T12:39:52.247Z,30.63
2017-10-19T12:42:19.078Z,29.63
2017-10-19T12:44:45.915Z,29.07
2017-10-19T12:47:12.743Z,30.50
2017-10-19T12:49:39.830Z,31.93
2017-10-19T12:52:06.986Z,31.63
2017-10-19T12:54:34.068Z,35.37
2017-10-19T12:57:00.911Z,34.30
2017-10-19T12:59:27.785Z,32.77
2017-10-19T13:01:54.639Z,34.13
2017-10-19T13:04:21.496Z,33.67
2017-10-19T13:06:48.361Z,33.80
2017-10-19T13:09:15.200Z,32.00
2017-10-19T13:11:42.008Z,34.67
2017-10-19T13:14:08.876Z,35.77
2017-10-19T13:16:36.030Z,37.73
2017-10-19T13:19:02.873Z,39.87
2017-10-19T13:21:29.727Z,38.80
2017-10-19T13:23:56.547Z,39.23
2017-10-19T13:26:23.401Z,38.83
2017-10-19T13:28:50.547Z,43.20
2017-10-19T13:31:17.397Z,44.20
2017-10-19T13:33:44.219Z,44.60
2017-10-19T13:36:11.063Z,43.20
2017-10-19T13:38:38.232Z,42.40
2017-10-19T13:41:05.380Z,48.10
2017-10-19T13:43:32.213Z,44.50
2017-10-19T13:45:59.072Z,46.27
2017-10-19T13:48:26.170Z,48.37
2017-10-19T13:50:53.114Z,46.43
2017-10-19T13:53:20.312Z,48.17
2017-10-19T13:55:47.140Z,48.10
2017-10-19T13:58:14.299Z,45.60
2017-10-19T14:00:41.396Z,48.43
2017-10-19T14:03:08.475Z,45.93
2017-10-19T14:05:35.420Z,45.97
2017-10-19T14:08:02.495Z,46.97
2017-10-19T14:10:29.651Z,46.73
2017-10-19T14:12:57.109Z,49.20
2017-10-19T14:15:23.964Z,45.23
2017-10-19T14:17:50.794Z,47.13
2017-10-19T14:20:17.644Z,46.70
2017-10-19T14:22:44.783Z,44.77
2017-10-19T14:25:11.601Z,45.13
2017-10-19T14:27:38.427Z,46.87
2017-10-19T14:30:05.521Z,43.43
2017-10-19T14:32:32.355Z,44.93
2017-10-19T14:34:59.516Z,45.53
2017-10-19T14:37:26.668Z,47.87
2017-10-19T14:39:53.816Z,47.07
2017-10-19T14:42:20.660Z,46.80
2017-10-19T14:44:47.521Z,48.30
2017-10-19T14:47:14.393Z,49.83
2017-10-19T14:49:41.231Z,50.00
2017-10-19T14:52:08.339Z,49.63
2017-10-19T14:54:35.150Z,49.40
2017-10-19T14:57:02.012Z,50.57
2017-10-19T14:59:28.854Z,50.40
2017-10-19T15:01:55.911Z,50.03
2017-10-19T15:04:22.788Z,52.77
2017-10-19T15:06:49.907Z,55.30
2017-10-19T15:09:16.726Z,52.97
2017-10-19T15:11:43.604Z,53.37
2017-10-19T15:14:10.419Z,50.10
2017-10-19T15:16:37.355Z,54.70
2017-10-19T15:19:04.229Z,53.67
2017-10-19T15:21:31.080Z,55.27
2017-10-19T15:23:57.910Z,55.50
2017-10-19T15:26:24.783Z,57.70
2017-10-19T15:28:51.883Z,52.87
2017-10-19T15:31:18.733Z,53.87
2017-10-19T15:33:45.608Z,54.63
2017-10-19T15:36:12.461Z,53.67
2017-10-19T15:38:39.587Z,53.00
2017-10-19T15:41:06.453Z,53.03
2017-10-19T15:43:33.279Z,53.73
2017-10-19T15:46:00.137Z,49.30
2017-10-19T15:48:26.983Z,51.43
2017-10-19T15:51:00.044Z,53.30
2017-10-19T15:53:26.935Z,54.23
2017-10-19T15:55:53.784Z,51.00
2017-10-19T15:58:20.640Z,50.83
2017-10-19T16:00:47.489Z,53.87
2017-10-19T16:03:14.320Z,54.87
2017-10-19T16:05:41.185Z,53.20
2017-10-19T16:08:08.129Z,53.13
2017-10-19T16:10:35.308Z,52.63
2017-10-19T16:13:02.123Z,53.93
2017-10-19T16:15:29.191Z,54.73
2017-10-19T16:17:56.080Z,54.07
2017-10-19T16:20:22.892Z,57.80
2017-10-19T16:22:49.760Z,54.70
2017-10-19T16:25:16.592Z,53.40
2017-10-19T16:27:43.496Z,54.03
2017-10-19T16:30:10.373Z,54.77
2017-10-19T16:32:37.221Z,51.30
2017-10-19T16:35:04.348Z,50.50
2017-10-19T16:37:31.232Z,50.10
2017-10-19T16:39:58.051Z,48.83
2017-10-19T16:42:24.875Z,48.03
2017-10-19T16:44:51.707Z,47.20
2017-10-19T16:47:18.523Z,47.27
2017-10-19T16:49:45.364Z,44.70
2017-10-19T16:52:12.215Z,45.70
2017-10-19T16:54:39.073Z,43.70
2017-10-19T16:57:05.933Z,45.00
2017-10-19T16:59:32.796Z,45.83
2017-10-19T17:01:59.648Z,42.30
2017-10-19T17:04:26.772Z,45.77
2017-10-19T17:06:54.593Z,46.90
2017-10-19T17:09:21.472Z,46.30
2017-10-19T17:11:48.324Z,44.10
2017-10-19T17:14:15.193Z,44.13
2017-10-19T17:16:42.049Z,47.13
2017-10-19T17:19:08.898Z,44.17
2017-10-19T17:21:35.784Z,44.43
2017-10-19T17:24:02.640Z,48.30
2017-10-19T17:26:29.488Z,45.87
2017-10-19T17:28:56.336Z,44.97
2017-10-19T17:31:23.184Z,46.17
2017-10-19T17:33:50.056Z,43.80
2017-10-19T17:36:17.172Z,41.70
2017-10-19T17:38:44.024Z,43.17
2017-10-19T17:41:11.184Z,39.70
2017-10-19T17:43:38.011Z,42.03
2017-10-19T17:46:04.867Z,40.80
2017-10-19T17:48:31.996Z,39.87
2017-10-19T17:50:58.848Z,39.00
2017-10-19T17:53:25.997Z,37.87
2017-10-19T17:55:53.144Z,38.83
2017-10-19T17:58:20.295Z,39.10
2017-10-19T18:00:47.443Z,37.47
2017-10-19T18:03:14.313Z,37.40
2017-10-19T18:05:41.225Z,38.77
2017-10-19T18:08:08.107Z,38.53
2017-10-19T18:10:34.985Z,39.10
2017-10-19T18:13:01.841Z,38.30
2017-10-19T18:15:29.017Z,39.20
2017-10-19T18:17:55.853Z,41.00
2017-10-19T18:20:22.737Z,37.47
2017-10-19T18:22:49.552Z,40.90
2017-10-19T18:25:16.412Z,39.10
2017-10-19T18:27:43.292Z,40.80
2017-10-19T18:30:10.138Z,40.37
2017-10-19T18:32:37.334Z,39.80
2017-10-19T18:35:04.204Z,40.23
2017-10-19T18:37:31.315Z,39.53
2017-10-19T18:39:58.139Z,41.70
2017-10-19T18:42:25.227Z,41.83
2017-10-19T18:44:52.364Z,42.83
2017-10-19T18:47:19.216Z,39.80
2017-10-19T18:49:46.087Z,41.70
2017-10-19T18:52:13.195Z,41.60
2017-10-19T18:54:40.061Z,45.50
2017-10-19T18:57:06.908Z,41.47
2017-10-19T18:59:33.728Z,44.50
2017-10-19T19:02:00.544Z,41.57
2017-10-19T19:04:27.720Z,43.30
2017-10-19T19:06:54.575Z,42.90
2017-10-19T19:09:21.437Z,44.67
2017-10-19T19:11:48.309Z,42.97
2017-10-19T19:14:15.139Z,46.53
2017-10-19T19:16:41.980Z,43.50
2017-10-19T19:19:08.841Z,43.47
2017-10-19T19:21:35.935Z,43.30
2017-10-19T19:24:02.788Z,45.43
2017-10-19T19:26:29.660Z,48.83
2017-10-19T19:28:56.480Z,51.03
2017-10-19T19:31:23.306Z,51.37
2017-10-19T19:33:50.353Z,48.13
2017-10-19T19:36:17.415Z,46.80
2017-10-19T19:38:44.273Z,54.13
2017-10-19T19:41:11.533Z,53.40
2017-10-19T19:43:38.400Z,50.37
2017-10-19T19:46:05.330Z,54.60
2017-10-19T19:48:32.402Z,53.47
2017-10-19T19:51:00.351Z,51.60
2017-10-19T19:53:27.642Z,54.43
2017-10-19T19:55:54.844Z,52.00
2017-10-19T19:58:21.681Z,56.00
2017-10-19T20:00:48.553Z,53.80
2017-10-19T20:03:15.407Z,54.27
2017-10-19T20:05:42.261Z,61.17
2017-10-19T20:08:09.433Z,60.00
2017-10-19T20:10:36.308Z,57.90
2017-10-19T20:13:03.157Z,57.80
2017-10-19T20:15:30.565Z,60.87
2017-10-19T20:17:58.321Z,63.40
2017-10-19T20:20:27.507Z,58.23
2017-10-19T20:22:57.132Z,62.70
2017-10-19T20:25:24.916Z,62.97
2017-10-19T20:27:52.284Z,59.60
2017-10-19T20:30:19.273Z,66.30
2017-10-19T20:32:47.125Z,67.37
2017-10-19T20:35:14.897Z,68.33
2017-10-19T20:37:41.748Z,67.60
2017-10-19T20:40:08.590Z,72.57
2017-10-19T20:42:35.786Z,71.80
2017-10-19T20:45:02.653Z,68.57
2017-10-19T20:47:29.537Z,67.20
2017-10-19T20:49:56.368Z,73.67
2017-10-19T20:52:23.191Z,73.60
2017-10-19T20:54:50.071Z,76.40
2017-10-19T20:57:16.862Z,77.03
2017-10-19T20:59:43.666Z,76.97
2017-10-19T21:02:10.747Z,81.77
2017-10-19T21:04:37.870Z,80.10
2017-10-19T21:07:05.030Z,84.50
2017-10-19T21:09:31.900Z,84.60
2017-10-19T21:11:59.032Z,86.87
2017-10-19T21:14:26.172Z,84.50
2017-10-19T21:16:53.319Z,87.10
2017-10-19T21:19:20.147Z,88.67
2017-10-19T21:21:49.394Z,88.10
2017-10-19T21:24:20.416Z,89.20
2017-10-19T21:26:52.632Z,88.47
2017-10-19T21:29:23.657Z,89.33
2017-10-19T21:31:52.872Z,91.63
2017-10-19T21:34:22.617Z,92.10
2017-10-19T21:36:53.224Z,93.27
2017-10-19T21:39:24.073Z,91.37
2017-10-19T21:41:56.585Z,95.53
2017-10-19T21:44:28.204Z,98.93
2017-10-19T21:46:59.134Z,97.17
2017-10-19T21:49:28.150Z,93.80
2017-10-19T21:51:56.111Z,97.97
2017-10-19T21:54:27.957Z,93.87
2017-10-19T21:57:00.909Z,96.70
2017-10-19T21:59:31.037Z,96.47
2017-10-19T22:01:59.925Z,97.90
2017-10-19T22:04:35.865Z,100.80
2017-10-19T22:07:07.723Z,99.33
2017-10-19T22:09:39.524Z,98.83
2017-10-19T22:12:11.366Z,96.87
2017-10-19T22:14:39.789Z,102.60
2017-10-19T22:17:09.223Z,102.57
2017-10-19T22:19:39.567Z,97.27
2017-10-19T22:22:12.048Z,102.53
2017-10-19T22:24:43.339Z,97.30
2017-10-19T22:27:13.456Z,103.97
2017-10-19T22:29:44.724Z,106.77
2017-10-19T22:32:11.946Z,103.83
2017-10-19T22:34:39.296Z,101.17
2017-10-19T22:37:06.131Z,100.87
2017-10-19T22:39:32.935Z,104.83
2017-10-19T22:42:00.055Z,107.40
2017-10-19T22:44:26.918Z,109.47
2017-10-19T22:46:53.739Z,108.13
2017-10-19T22:49:20.564Z,108.77
2017-10-19T22:51:47.443Z,102.57
2017-10-19T22:54:14.310Z,117.33
2017-10-19T22:56:41.427Z,114.47
2017-10-19T22:59:08.577Z,100.70
2017-10-19T23:01:35.411Z,106.43
2017-10-19T23:04:02.482Z,108.77
2017-10-19T23:06:29.616Z,106.87
2017-10-19T23:08:56.665Z,107.37
2017-10-19T23:11:23.458Z,110.97
2017-10-19T23:13:50.323Z,112.57
2017-10-19T23:16:17.162Z,108.87
2017-10-19T23:18:44.003Z,102.43
2017-10-19T23:21:10.834Z,114.20
2017-10-19T23:23:37.633Z,107.80
2017-10-19T23:26:04.774Z,111.77
2017-10-19T23:28:31.594Z,112.57
2017-10-19T23:30:58.764Z,110.90
2017-10-19T23:33:25.916Z,109.20
2017-10-19T23:35:52.769Z,115.70
2017-10-19T23:38:19.591Z,120.50
2017-10-19T23:40:46.747Z,111.87
2017-10-19T23:43:13.603Z,110.70
2017-10-19T23:45:40.638Z,114.17
2017-10-19T23:48:07.686Z,109.90
2017-10-19T23:50:34.518Z,112.90
2017-10-19T23:53:01.347Z,113.93
2017-10-19T23:55:28.362Z,115.60
2017-10-19T23:57:55.185Z,110.10
